VTSP Airport Information

Runway Information
Runway 09 Length 9843 ft width 148 ft
Elevation 19 ft Threshold ft Heading 85
Runway 27 Length 9843 ft Width 148 ft
Elevation 82 ft Threshold ft Heading 265
Airport Frequencies
Type APP Name APP Frequency 124.7 MHZ
Type ATIS Name ATIS Frequency 128 MHZ
Type GND Name GND Frequency 121.9 MHZ
Type TWR Name TWR Frequency 118.1 MHZ
Airport Navaids
Type NDB Name Phuket Frequency 360 KHZ
Type VOR-DME Name Phuket Frequency 116900 KHZ
Airport Weather Information & NOTAM
ADDS - METARS form results

(0815 UTC 30 June 2022)
Data provider http://aviationweather.gov/metar/data/
 
METAR text: VTSP 300800Z 27016KT 9999 FEW018TCU SCT020 31/24 Q1005 NOSIG
Conditions at: VTSP (PHUKET INTL AIRP, TH) observed 0800 UTC 30 June 2022
Temperature: 31.0°C (88°F)
Dewpoint: 24.0°C (75°F) [RH = 66%]
Pressure (altimeter): 29.68 inches Hg (1005.0 mb)
Winds: from the W (270 degrees) at 18 MPH (16 knots; 8.2 m/s)
Visibility: 6 or more miles (10+ km)
Ceiling: at least 12,000 feet AGL
Clouds: few clouds at 1800 feet AGL
scattered clouds at 2000 feet AGL
Weather: no significant weather observed at this time

METAR text: VTSP 300730Z 27015KT 9999 FEW020 32/24 Q1005 NOSIG
Conditions at: VTSP (PHUKET INTL AIRP, TH) observed 0730 UTC 30 June 2022
Temperature: 32.0°C (90°F)
Dewpoint: 24.0°C (75°F) [RH = 63%]
Pressure (altimeter): 29.68 inches Hg (1005.0 mb)
Winds: from the W (270 degrees) at 17 MPH (15 knots; 7.7 m/s)
Visibility: 6 or more miles (10+ km)
Ceiling: at least 12,000 feet AGL
Clouds: few clouds at 2000 feet AGL
Weather: no significant weather observed at this time

Forecast for: VTSP (PHUKET INTL AIRP, TH)
Text: TAF VTSP 300500Z 3006/0112 28012KT 9999 SCT020
Forecast period: 0600 UTC 30 June 2022 to 1200 UTC 01 July 2022
Forecast type: FROM: standard forecast or significant change
Winds: from the W (280 degrees) at 14 MPH (12 knots; 6.2 m/s)
Visibility: 6 or more miles (10+ km)
Ceiling: at least 12,000 feet AGL
Clouds: scattered clouds at 2000 feet AGL
Weather: no significant weather forecast for this period